No particular awareness of the weather is required.    There are no Weather-warnings


Meteo18 Weather Cam more information Meteo18 Weather Cam


Thunder radar more information blitzortung!


Rain radar more information rain snow radar


Visit our other weather sites:

Template documentation
and downloads

And another site



Weather Underground History page Text

Daily Summary for April 4, 2017 Units:  English    Metric   Both
« Previous Day
Next Day »
Daily Weekly Monthly Yearly Custom
  High: Low: Average:
Temperature: TemperatureC °F 6.7 °F 11.9 °F
Dew Point: DewpointC °F 3.8 °F 6.9 °F
Humidity: Humidity % 54 % 72 %
Wind Speed: WindSpeedKMH mph 0.0 mph 2.9 mph
Wind Gust: WindSpeedGustKMH mph - -
Wind:- - WSW
Pressure: PressurehPa in 1023.2 in -
Precipitation: 0.0 in    
Historical Graphs
 
 
Tabular Data for April 4, 2017
Time Temperature Dew Point Pressure Wind Wind Speed Wind Gust Humidity Rainfall Rate (Hourly)
TemperatureC °F DewpointC °F PressurehPa in Calm     Humidity % HourlyPrecipMM in
00:02 10.1 °F 5.3 °F 1025.3 in WNW 3.2 mph 3.2 mph 72 % 0.0 in
00:12 9.9 °F 5.3 °F 1025.6 in WNW 3.2 mph 3.2 mph 73 % 0.0 in
00:17 9.8 °F 5.2 °F 1025.6 in WNW 1.6 mph 3.2 mph 73 % 0.0 in
00:22 9.9 °F 5.3 °F 1025.6 in WNW 1.6 mph 3.2 mph 73 % 0.0 in
00:32 9.9 °F 5.1 °F 1025.6 in WNW 3.2 mph 3.2 mph 72 % 0.0 in
00:42 9.7 °F 5.1 °F 1025.6 in Calm   3.2 mph 73 % 0.0 in
00:47 9.6 °F 5.0 °F 1025.6 in NW 1.6 mph 3.2 mph 73 % 0.0 in
00:52 9.6 °F 5.0 °F 1025.3 in NW 1.6 mph 1.6 mph 73 % 0.0 in
00:57 9.7 °F 5.1 °F 1025.3 in NW 1.6 mph 3.2 mph 73 % 0.0 in
01:02 9.4 °F 5.0 °F 1025.3 in WNW 3.2 mph 3.2 mph 74 % 0.0 in
01:12 9.3 °F 4.9 °F 1025.3 in WNW 3.2 mph 4.8 mph 74 % 0.0 in
01:17 9.2 °F 4.8 °F 1025.3 in WNW 3.2 mph 4.8 mph 74 % 0.0 in
01:22 8.9 °F 4.7 °F 1025.3 in Calm   3.2 mph 75 % 0.0 in
01:27 8.9 °F 4.7 °F 1025.3 in WNW 1.6 mph 3.2 mph 75 % 0.0 in
01:32 9.1 °F 4.9 °F 1025.3 in Calm   3.2 mph 75 % 0.0 in
01:37 8.7 °F 4.7 °F 1025.3 in WNW 1.6 mph 1.6 mph 76 % 0.0 in
01:42 8.4 °F 4.8 °F 1025.3 in WNW 3.2 mph 3.2 mph 78 % 0.0 in
01:47 8.5 °F 4.7 °F 1025.3 in WNW 3.2 mph 3.2 mph 77 % 0.0 in
01:52 8.6 °F 4.6 °F 1025.3 in WNW 1.6 mph 4.8 mph 76 % 0.0 in
01:57 8.3 °F 4.5 °F 1025.3 in WNW 3.2 mph 4.8 mph 77 % 0.0 in
02:02 8.3 °F 4.7 °F 1025.3 in WNW 3.2 mph 4.8 mph 78 % 0.0 in
02:07 8.4 °F 4.6 °F 1025.3 in WNW 1.6 mph 3.2 mph 77 % 0.0 in
02:12 8.4 °F 4.6 °F 1025.3 in WNW 3.2 mph 3.2 mph 77 % 0.0 in
02:17 8.2 °F 4.4 °F 1025.3 in WNW 3.2 mph 3.2 mph 77 % 0.0 in
02:22 8.1 °F 4.5 °F 1024.9 in WNW 3.2 mph 3.2 mph 78 % 0.0 in
02:27 8.1 °F 4.5 °F 1024.9 in Calm   3.2 mph 78 % 0.0 in
02:32 8.1 °F 4.5 °F 1024.9 in WNW 1.6 mph 3.2 mph 78 % 0.0 in
02:37 8.0 °F 4.4 °F 1024.9 in WNW 3.2 mph 3.2 mph 78 % 0.0 in
02:42 8.0 °F 4.6 °F 1024.9 in WNW 3.2 mph 3.2 mph 79 % 0.0 in
02:47 8.2 °F 4.6 °F 1024.9 in WNW 1.6 mph 3.2 mph 78 % 0.0 in
02:52 8.2 °F 4.6 °F 1024.9 in WNW 3.2 mph 3.2 mph 78 % 0.0 in
02:57 8.1 °F 4.3 °F 1024.9 in WNW 3.2 mph 3.2 mph 77 % 0.0 in
03:02 7.8 °F 4.4 °F 1024.9 in WNW 1.6 mph 3.2 mph 79 % 0.0 in
03:07 7.9 °F 4.5 °F 1024.9 in WNW 1.6 mph 3.2 mph 79 % 0.0 in
03:12 7.9 °F 4.5 °F 1024.9 in Calm   3.2 mph 79 % 0.0 in
03:17 7.8 °F 4.4 °F 1024.6 in WNW 1.6 mph 3.2 mph 79 % 0.0 in
03:22 7.5 °F 4.3 °F 1024.9 in WNW 1.6 mph 1.6 mph 80 % 0.0 in
03:32 7.4 °F 4.2 °F 1024.6 in WNW 1.6 mph 3.2 mph 80 % 0.0 in
03:37 7.3 °F 4.1 °F 1024.6 in Calm   3.2 mph 80 % 0.0 in
03:42 7.1 °F 4.1 °F 1024.6 in WNW 3.2 mph 3.2 mph 81 % 0.0 in
03:47 7.2 °F 4.2 °F 1024.6 in Calm   3.2 mph 81 % 0.0 in
03:52 7.6 °F 4.5 °F 1024.9 in Calm   3.2 mph 81 % 0.0 in
03:57 7.7 °F 4.3 °F 1024.9 in Calm   3.2 mph 79 % 0.0 in
04:02 7.6 °F 4.2 °F 1024.9 in Calm   1.6 mph 79 % 0.0 in
04:07 7.3 °F 4.1 °F 1024.6 in Calm   1.6 mph 80 % 0.0 in
04:12 7.2 °F 4.2 °F 1024.9 in Calm   1.6 mph 81 % 0.0 in
04:17 7.2 °F 4.3 °F 1024.9 in Calm   1.6 mph 82 % 0.0 in
04:22 7.2 °F 4.2 °F 1024.9 in Calm   1.6 mph 81 % 0.0 in
04:27 7.3 °F 4.3 °F 1024.6 in Calm   1.6 mph 81 % 0.0 in
04:32 7.3 °F 4.3 °F 1024.6 in Calm     81 % 0.0 in
04:37 7.0 °F 4.0 °F 1024.6 in Calm   1.6 mph 81 % 0.0 in
04:42 6.8 °F 3.9 °F 1024.6 in Calm   1.6 mph 82 % 0.0 in
04:47 6.7 °F 3.8 °F 1024.6 in Calm   1.6 mph 82 % 0.0 in
04:52 6.7 °F 4.0 °F 1024.6 in Calm   1.6 mph 83 % 0.0 in
04:57 6.9 °F 4.0 °F 1024.6 in Calm     82 % 0.0 in
05:02 7.1 °F 4.2 °F 1024.9 in Calm     82 % 0.0 in
05:12 7.4 °F 4.4 °F 1024.6 in Calm     81 % 0.0 in
05:17 7.5 °F 4.6 °F 1024.6 in Calm   3.2 mph 82 % 0.0 in
05:22 7.7 °F 4.5 °F 1024.6 in Calm   3.2 mph 80 % 0.0 in
05:27 7.6 °F 4.7 °F 1024.6 in Calm   3.2 mph 82 % 0.0 in
05:32 7.4 °F 4.7 °F 1024.6 in Calm   3.2 mph 83 % 0.0 in
05:37 7.3 °F 4.6 °F 1024.6 in Calm   3.2 mph 83 % 0.0 in
05:42 7.4 °F 4.9 °F 1024.6 in NE 8.0 mph 8.0 mph 84 % 0.0 in
05:52 7.2 °F 4.8 °F 1024.6 in Calm   12.9 mph 85 % 0.0 in
05:57 7.1 °F 4.9 °F 1024.6 in Calm   12.9 mph 86 % 0.0 in
06:02 7.1 °F 5.1 °F 1024.6 in Calm   8.0 mph 87 % 0.0 in
06:12 7.2 °F 5.2 °F 1024.6 in Calm   3.2 mph 87 % 0.0 in
06:17 7.3 °F 5.3 °F 1024.9 in NW 1.6 mph 3.2 mph 87 % 0.0 in
06:22 7.4 °F 5.4 °F 1024.9 in NNW 1.6 mph 11.3 mph 87 % 0.0 in
06:27 7.5 °F 5.3 °F 1024.9 in NW 1.6 mph 11.3 mph 86 % 0.0 in
06:32 7.6 °F 5.4 °F 1024.9 in Calm   3.2 mph 86 % 0.0 in
06:42 7.8 °F 5.3 °F 1024.6 in Calm   1.6 mph 84 % 0.0 in
06:47 7.8 °F 5.4 °F 1024.6 in Calm   1.6 mph 85 % 0.0 in
06:52 7.7 °F 5.3 °F 1024.6 in Calm   3.2 mph 85 % 0.0 in
07:02 7.7 °F 5.3 °F 1024.6 in Calm   3.2 mph 85 % 0.0 in
07:07 7.8 °F 5.4 °F 1024.6 in Calm   3.2 mph 85 % 0.0 in
07:12 7.7 °F 5.5 °F 1024.6 in Calm   3.2 mph 86 % 0.0 in
07:17 7.6 °F 5.4 °F 1024.6 in Calm   1.6 mph 86 % 0.0 in
07:22 7.6 °F 5.4 °F 1024.6 in Calm   1.6 mph 86 % 0.0 in
07:32 7.5 °F 5.5 °F 1024.6 in Calm   1.6 mph 87 % 0.0 in
07:37 7.5 °F 5.5 °F 1024.6 in Calm   1.6 mph 87 % 0.0 in
07:42 7.6 °F 5.6 °F 1024.6 in Calm   1.6 mph 87 % 0.0 in
07:52 7.8 °F 5.6 °F 1024.6 in Calm   1.6 mph 86 % 0.0 in
07:57 7.8 °F 5.6 °F 1024.9 in Calm   1.6 mph 86 % 0.0 in
08:02 7.8 °F 5.6 °F 1024.9 in NNE 3.2 mph 3.2 mph 86 % 0.0 in
08:12 8.3 °F 5.8 °F 1024.9 in NNW 1.6 mph 4.8 mph 84 % 0.0 in
08:17 8.3 °F 5.8 °F 1024.9 in Calm   4.8 mph 84 % 0.0 in
08:22 8.3 °F 5.9 °F 1024.9 in Calm   1.6 mph 85 % 0.0 in
08:32 8.2 °F 5.8 °F 1024.9 in Calm   3.2 mph 85 % 0.0 in
08:37 8.2 °F 5.8 °F 1024.9 in North 3.2 mph 3.2 mph 85 % 0.0 in
08:42 8.5 °F 6.1 °F 1024.9 in Calm   4.8 mph 85 % 0.0 in
08:47 9.0 °F 6.3 °F 1024.9 in Calm   4.8 mph 83 % 0.0 in
08:52 9.7 °F 6.4 °F 1024.9 in Calm   4.8 mph 80 % 0.0 in
08:57 10.3 °F 6.4 °F 1024.9 in Calm   1.6 mph 77 % 0.0 in
09:02 10.3 °F 7.0 °F 1024.9 in Calm     80 % 0.0 in
09:12 10.3 °F 7.4 °F 1024.9 in Calm   1.6 mph 82 % 0.0 in
09:17 10.7 °F 7.8 °F 1024.9 in Calm   1.6 mph 82 % 0.0 in
09:22 11.4 °F 8.1 °F 1024.9 in Calm   1.6 mph 80 % 0.0 in
09:27 12.1 °F 8.0 °F 1024.9 in Calm   1.6 mph 76 % 0.0 in
09:32 12.2 °F 8.5 °F 1024.9 in Calm   1.6 mph 78 % 0.0 in
09:37 12.3 °F 8.4 °F 1024.9 in Calm   1.6 mph 77 % 0.0 in
09:42 12.4 °F 8.7 °F 1024.9 in East 1.6 mph 3.2 mph 78 % 0.0 in
09:47 12.7 °F 8.8 °F 1024.9 in Calm   3.2 mph 77 % 0.0 in
09:52 12.9 °F 8.8 °F 1024.9 in ESE 1.6 mph 3.2 mph 76 % 0.0 in
09:57 13.4 °F 8.9 °F 1024.9 in East 1.6 mph 3.2 mph 74 % 0.0 in
10:02 13.3 °F 8.4 °F 1024.9 in East 1.6 mph 3.2 mph 72 % 0.0 in
10:07 13.8 °F 8.4 °F 1024.9 in SE 1.6 mph 3.2 mph 70 % 0.0 in
10:12 14.2 °F 8.2 °F 1024.9 in SE 1.6 mph 3.2 mph 67 % 0.0 in
10:17 14.3 °F 8.5 °F 1024.9 in SSE 1.6 mph 4.8 mph 68 % 0.0 in
10:22 14.3 °F 8.7 °F 1024.9 in Calm   4.8 mph 69 % 0.0 in
10:32 14.7 °F 9.5 °F 1024.9 in SE 4.8 mph 4.8 mph 71 % 0.0 in
10:42 14.7 °F 9.3 °F 1025.3 in ESE 4.8 mph 6.4 mph 70 % 0.0 in
10:47 14.7 °F 9.7 °F 1025.3 in East 1.6 mph 4.8 mph 72 % 0.0 in
10:52 14.6 °F 9.8 °F 1025.3 in Calm   4.8 mph 73 % 0.0 in
10:57 14.6 °F 9.8 °F 1025.3 in East 3.2 mph 4.8 mph 73 % 0.0 in
11:02 14.4 °F 9.8 °F 1024.9 in SE 1.6 mph 4.8 mph 74 % 0.0 in
11:07 14.7 °F 9.3 °F 1024.9 in East 4.8 mph 4.8 mph 70 % 0.0 in
11:12 14.8 °F 9.4 °F 1024.9 in ESE 6.4 mph 6.4 mph 70 % 0.0 in
11:17 15.2 °F 10.0 °F 1024.9 in SE 1.6 mph 6.4 mph 71 % 0.0 in
11:22 15.4 °F 10.0 °F 1024.9 in ESE 4.8 mph 6.4 mph 70 % 0.0 in
11:27 15.3 °F 9.6 °F 1024.9 in SE 1.6 mph 8.0 mph 69 % 0.0 in
11:32 15.3 °F 9.2 °F 1024.9 in SSE 4.8 mph 8.0 mph 67 % 0.0 in
11:37 15.6 °F 10.1 °F 1024.9 in ENE 3.2 mph 8.0 mph 70 % 0.0 in
11:42 15.7 °F 9.6 °F 1024.9 in SE 1.6 mph 8.0 mph 67 % 0.0 in
11:47 15.7 °F 10.0 °F 1024.9 in SSE 3.2 mph 6.4 mph 69 % 0.0 in
11:52 15.6 °F 9.7 °F 1024.9 in Calm   6.4 mph 68 % 0.0 in
11:57 15.5 °F 9.2 °F 1024.9 in SSW 1.6 mph 4.8 mph 66 % 0.0 in
12:02 15.6 °F 8.8 °F 1024.9 in South 1.6 mph 4.8 mph 64 % 0.0 in
12:07 15.6 °F 8.6 °F 1024.9 in SSW 1.6 mph 4.8 mph 63 % 0.0 in
12:12 15.7 °F 8.0 °F 1024.9 in South 3.2 mph 4.8 mph 60 % 0.0 in
12:17 15.7 °F 8.0 °F 1024.9 in SSW 4.8 mph 8.0 mph 60 % 0.0 in
12:22 15.7 °F 8.0 °F 1024.9 in SSW 8.0 mph 9.7 mph 60 % 0.0 in
12:27 15.7 °F 8.0 °F 1024.9 in SSW 12.9 mph 12.9 mph 60 % 0.0 in
12:32 15.7 °F 8.2 °F 1024.9 in SSW 4.8 mph 12.9 mph 61 % 0.0 in
12:42 16.1 °F 8.1 °F 1024.6 in SW 8.0 mph 12.9 mph 59 % 0.0 in
12:47 16.0 °F 8.0 °F 1024.6 in SSW 9.7 mph 12.9 mph 59 % 0.0 in
12:52 15.8 °F 8.3 °F 1024.6 in SW 6.4 mph 12.9 mph 61 % 0.0 in
12:57 15.7 °F 8.2 °F 1024.6 in SSW 3.2 mph 12.9 mph 61 % 0.0 in
13:02 15.7 °F 8.4 °F 1024.6 in ENE 1.6 mph 11.3 mph 62 % 0.0 in
13:07 15.6 °F 8.8 °F 1024.9 in North 1.6 mph 9.7 mph 64 % 0.0 in
13:12 15.6 °F 9.0 °F 1024.6 in NNE 1.6 mph 4.8 mph 65 % 0.0 in
13:17 15.6 °F 9.0 °F 1024.6 in North 3.2 mph 4.8 mph 65 % 0.0 in
13:22 15.8 °F 8.5 °F 1024.6 in East 1.6 mph 4.8 mph 62 % 0.0 in
13:32 16.6 °F 8.3 °F 1024.3 in Calm   6.4 mph 58 % 0.0 in
13:37 17.0 °F 8.2 °F 1024.3 in SE 3.2 mph 6.4 mph 56 % 0.0 in
13:42 17.4 °F 9.1 °F 1024.3 in ENE 1.6 mph 6.4 mph 58 % 0.0 in
13:47 17.2 °F 7.8 °F 1024.3 in ENE 4.8 mph 8.0 mph 54 % 0.0 in
13:52 16.8 °F 8.0 °F 1024.3 in ENE 3.2 mph 9.7 mph 56 % 0.0 in
13:57 16.7 °F 7.6 °F 1024.3 in SSE 1.6 mph 9.7 mph 55 % 0.0 in
14:02 16.6 °F 8.0 °F 1024.3 in ENE 3.2 mph 6.4 mph 57 % 0.0 in
14:07 16.6 °F 8.3 °F 1024.3 in ENE 4.8 mph 6.4 mph 58 % 0.0 in
14:12 16.4 °F 7.6 °F 1024.3 in East 1.6 mph 6.4 mph 56 % 0.0 in
14:17 16.5 °F 8.2 °F 1024.3 in Calm   6.4 mph 58 % 0.0 in
14:22 16.6 °F 8.0 °F 1023.9 in Calm   6.4 mph 57 % 0.0 in
14:27 16.8 °F 7.4 °F 1023.9 in Calm   3.2 mph 54 % 0.0 in
14:32 16.7 °F 7.3 °F 1023.9 in Calm   3.2 mph 54 % 0.0 in
14:37 16.7 °F 7.6 °F 1023.9 in WNW 3.2 mph 3.2 mph 55 % 0.0 in
14:42 16.6 °F 7.3 °F 1023.9 in Calm   3.2 mph 54 % 0.0 in
14:47 16.5 °F 7.4 °F 1023.9 in Calm   3.2 mph 55 % 0.0 in
14:57 16.5 °F 7.4 °F 1023.9 in Calm     55 % 0.0 in
15:02 16.4 °F 7.3 °F 1023.9 in Calm     55 % 0.0 in
15:07 16.3 °F 7.2 °F 1023.9 in Calm     55 % 0.0 in
15:12 16.3 °F 7.2 °F 1023.9 in Calm     55 % 0.0 in
15:17 16.3 °F 8.0 °F 1023.9 in Calm     58 % 0.0 in
15:22 16.4 °F 7.3 °F 1023.9 in Calm     55 % 0.0 in
15:27 16.4 °F 7.3 °F 1023.6 in Calm     55 % 0.0 in
15:32 16.5 °F 7.4 °F 1023.6 in Calm     55 % 0.0 in
15:37 16.5 °F 7.4 °F 1023.6 in Calm     55 % 0.0 in
15:42 16.4 °F 7.6 °F 1023.6 in West 3.2 mph   56 % 0.0 in
15:47 16.4 °F 7.9 °F 1023.6 in West 6.4 mph 6.4 mph 57 % 0.0 in
15:52 16.3 °F 8.0 °F 1023.6 in West 6.4 mph 6.4 mph 58 % 0.0 in
15:57 16.3 °F 8.0 °F 1023.6 in West 3.2 mph 6.4 mph 58 % 0.0 in
16:02 16.2 °F 7.7 °F 1023.6 in West 1.6 mph 6.4 mph 57 % 0.0 in
16:07 16.1 °F 7.3 °F 1023.6 in West 4.8 mph 6.4 mph 56 % 0.0 in
16:12 16.0 °F 7.7 °F 1023.6 in WSW 9.7 mph 9.7 mph 58 % 0.0 in
16:17 15.9 °F 7.6 °F 1023.6 in West 4.8 mph 9.7 mph 58 % 0.0 in
16:22 15.7 °F 8.4 °F 1023.6 in Calm   9.7 mph 62 % 0.0 in
16:32 15.3 °F 8.3 °F 1023.6 in NW 1.6 mph 9.7 mph 63 % 0.0 in
16:37 15.2 °F 8.0 °F 1023.6 in Calm   8.0 mph 62 % 0.0 in
16:42 15.1 °F 8.3 °F 1023.6 in West 1.6 mph 8.0 mph 64 % 0.0 in
16:52 14.9 °F 8.1 °F 1023.6 in West 1.6 mph 3.2 mph 64 % 0.0 in
16:57 15.0 °F 8.0 °F 1023.2 in WNW 1.6 mph 4.8 mph 63 % 0.0 in
17:02 15.0 °F 7.8 °F 1023.2 in WNW 8.0 mph 8.0 mph 62 % 0.0 in
17:07 14.9 °F 7.9 °F 1023.6 in WSW 6.4 mph 11.3 mph 63 % 0.0 in
17:12 14.7 °F 8.0 °F 1023.6 in West 6.4 mph 16.1 mph 64 % 0.0 in
17:17 14.5 °F 8.2 °F 1023.6 in West 3.2 mph 16.1 mph 66 % 0.0 in
17:22 14.4 °F 8.3 °F 1023.6 in NW 9.7 mph 16.1 mph 67 % 0.0 in
17:27 14.3 °F 8.3 °F 1023.6 in NNW 4.8 mph 16.1 mph 67 % 0.0 in
17:32 14.4 °F 8.3 °F 1023.6 in WNW 8.0 mph 16.1 mph 67 % 0.0 in
17:37 14.3 °F 7.8 °F 1023.6 in WNW 3.2 mph 14.5 mph 65 % 0.0 in
17:42 14.2 °F 7.7 °F 1023.6 in WNW 4.8 mph 17.7 mph 65 % 0.0 in
17:47 14.2 °F 7.9 °F 1023.6 in WNW 8.0 mph 17.7 mph 66 % 0.0 in
17:52 14.1 °F 7.6 °F 1023.6 in WNW 6.4 mph 17.7 mph 65 % 0.0 in
17:57 14.1 °F 7.6 °F 1023.6 in NW 6.4 mph 12.9 mph 65 % 0.0 in
18:02 14.0 °F 7.5 °F 1023.6 in WNW 4.8 mph 12.9 mph 65 % 0.0 in
18:12 13.9 °F 7.0 °F 1023.6 in NW 4.8 mph 11.3 mph 63 % 0.0 in
18:17 13.9 °F 7.0 °F 1023.6 in WNW 9.7 mph 12.9 mph 63 % 0.0 in
18:22 13.9 °F 7.0 °F 1023.6 in WNW 4.8 mph 12.9 mph 63 % 0.0 in
18:32 13.9 °F 7.0 °F 1023.9 in WNW 4.8 mph 12.9 mph 63 % 0.0 in
18:42 13.9 °F 6.5 °F 1023.9 in WNW 8.0 mph 12.9 mph 61 % 0.0 in
18:47 13.9 °F 7.0 °F 1023.9 in NW 6.4 mph 12.9 mph 63 % 0.0 in
18:52 13.8 °F 6.9 °F 1023.9 in NW 4.8 mph 11.3 mph 63 % 0.0 in
18:57 13.7 °F 7.0 °F 1023.9 in WNW 6.4 mph 11.3 mph 64 % 0.0 in
19:02 13.7 °F 7.0 °F 1023.9 in WNW 1.6 mph 8.0 mph 64 % 0.0 in
19:07 13.6 °F 7.1 °F 1023.9 in WNW 3.2 mph 11.3 mph 65 % 0.0 in
19:12 13.5 °F 7.0 °F 1023.9 in NW 4.8 mph 11.3 mph 65 % 0.0 in
19:17 13.4 °F 7.4 °F 1023.9 in West 3.2 mph 11.3 mph 67 % 0.0 in
19:22 13.2 °F 7.4 °F 1023.9 in West 6.4 mph 11.3 mph 68 % 0.0 in
19:27 13.1 °F 7.5 °F 1023.9 in West 4.8 mph 11.3 mph 69 % 0.0 in
19:32 12.9 °F 7.6 °F 1023.9 in WNW 8.0 mph 11.3 mph 70 % 0.0 in
19:37 12.8 °F 7.7 °F 1023.9 in WNW 8.0 mph 11.3 mph 71 % 0.0 in
19:42 12.7 °F 7.8 °F 1024.3 in West 3.2 mph 11.3 mph 72 % 0.0 in
19:47 12.6 °F 7.7 °F 1024.3 in West 3.2 mph 11.3 mph 72 % 0.0 in
19:52 12.4 °F 7.7 °F 1023.9 in WNW 6.4 mph 9.7 mph 73 % 0.0 in
19:57 12.3 °F 7.8 °F 1023.9 in WNW 4.8 mph 9.7 mph 74 % 0.0 in
20:02 12.2 °F 7.9 °F 1023.9 in NW 3.2 mph 8.0 mph 75 % 0.0 in
20:07 12.1 °F 7.8 °F 1023.9 in WNW 3.2 mph 8.0 mph 75 % 0.0 in
20:12 12.1 °F 8.0 °F 1023.9 in West 3.2 mph 8.0 mph 76 % 0.0 in
20:17 11.9 °F 8.0 °F 1023.9 in West 1.6 mph 8.0 mph 77 % 0.0 in
20:22 11.9 °F 8.0 °F 1023.9 in WSW 1.6 mph 8.0 mph 77 % 0.0 in
20:27 11.9 °F 8.0 °F 1023.9 in NW 4.8 mph 6.4 mph 77 % 0.0 in
20:32 11.9 °F 8.2 °F 1023.9 in NW 1.6 mph 8.0 mph 78 % 0.0 in
20:37 11.8 °F 8.1 °F 1023.9 in WNW 4.8 mph 8.0 mph 78 % 0.0 in
20:42 11.8 °F 8.1 °F 1024.3 in West 1.6 mph 8.0 mph 78 % 0.0 in
20:47 11.8 °F 8.1 °F 1024.3 in WNW 4.8 mph 8.0 mph 78 % 0.0 in
20:52 11.9 °F 8.0 °F 1024.3 in WNW 6.4 mph 8.0 mph 77 % 0.0 in
20:57 11.9 °F 7.8 °F 1024.3 in WNW 3.2 mph 8.0 mph 76 % 0.0 in
21:02 11.9 °F 7.8 °F 1024.3 in WNW 1.6 mph 8.0 mph 76 % 0.0 in
21:07 12.0 °F 7.7 °F 1024.3 in WNW 8.0 mph 9.7 mph 75 % 0.0 in
21:12 12.1 °F 7.6 °F 1024.3 in WNW 4.8 mph 9.7 mph 74 % 0.0 in
21:17 12.2 °F 7.7 °F 1024.3 in NW 6.4 mph 9.7 mph 74 % 0.0 in
21:22 12.2 °F 7.7 °F 1024.3 in WNW 6.4 mph 12.9 mph 74 % 0.0 in
21:32 12.2 °F 7.5 °F 1024.3 in WNW 8.0 mph 12.9 mph 73 % 0.0 in
21:37 12.3 °F 7.6 °F 1024.3 in WNW 6.4 mph 11.3 mph 73 % 0.0 in
21:42 12.3 °F 7.6 °F 1024.3 in NW 1.6 mph 11.3 mph 73 % 0.0 in
21:47 12.2 °F 7.3 °F 1024.3 in NW 3.2 mph 14.5 mph 72 % 0.0 in
21:52 12.2 °F 7.3 °F 1024.3 in WNW 3.2 mph 14.5 mph 72 % 0.0 in
21:57 12.2 °F 7.3 °F 1024.3 in NW 8.0 mph 11.3 mph 72 % 0.0 in
22:02 12.2 °F 7.5 °F 1024.6 in WNW 3.2 mph 11.3 mph 73 % 0.0 in
22:07 12.2 °F 7.5 °F 1024.6 in WNW 4.8 mph 14.5 mph 73 % 0.0 in
22:12 12.2 °F 7.7 °F 1024.6 in West 3.2 mph 14.5 mph 74 % 0.0 in
22:17 12.2 °F 7.7 °F 1024.6 in WNW 11.3 mph 14.5 mph 74 % 0.0 in
22:22 12.2 °F 7.7 °F 1024.6 in WNW 8.0 mph 14.5 mph 74 % 0.0 in
22:27 12.1 °F 7.8 °F 1024.6 in WNW 8.0 mph 14.5 mph 75 % 0.0 in
22:32 12.1 °F 8.0 °F 1024.6 in WSW 3.2 mph 14.5 mph 76 % 0.0 in
22:37 12.1 °F 8.0 °F 1024.6 in NW 8.0 mph 14.5 mph 76 % 0.0 in
22:42 12.1 °F 8.2 °F 1024.6 in West 6.4 mph 14.5 mph 77 % 0.0 in
22:47 12.0 °F 8.1 °F 1024.6 in NW 1.6 mph 14.5 mph 77 % 0.0 in
22:52 12.0 °F 8.3 °F 1024.6 in NNW 1.6 mph 14.5 mph 78 % 0.0 in
22:57 12.0 °F 8.3 °F 1024.6 in WNW 4.8 mph 14.5 mph 78 % 0.0 in
23:02 12.0 °F 8.3 °F 1024.6 in NW 11.3 mph 11.3 mph 78 % 0.0 in
23:07 11.9 °F 8.4 °F 1024.6 in NW 3.2 mph 16.1 mph 79 % 0.0 in
23:12 11.9 °F 8.4 °F 1024.6 in WNW 1.6 mph 16.1 mph 79 % 0.0 in
23:17 11.9 °F 8.4 °F 1024.6 in NW 4.8 mph 16.1 mph 79 % 0.0 in
23:22 11.9 °F 8.4 °F 1024.6 in NNW 3.2 mph 14.5 mph 79 % 0.0 in
23:27 11.9 °F 8.4 °F 1024.6 in NW 4.8 mph 14.5 mph 79 % 0.0 in
23:32 11.9 °F 8.2 °F 1024.6 in NW 8.0 mph 14.5 mph 78 % 0.0 in
23:37 11.9 °F 8.2 °F 1024.6 in NNW 9.7 mph 14.5 mph 78 % 0.0 in
23:42 12.1 °F 8.2 °F 1024.9 in NNW 9.7 mph 14.5 mph 77 % 0.0 in
23:47 12.1 °F 8.0 °F 1024.9 in North 19.3 mph 20.9 mph 76 % 0.0 in
23:52 12.2 °F 8.1 °F 1024.9 in NNW 16.1 mph 22.5 mph 76 % 0.0 in
23:57 12.2 °F 7.9 °F 1024.6 in North 11.3 mph 22.5 mph 75 % 0.0 in
Meteo18
Compliments of Weather Underground - 4 mb

Script developed by  Jim McMurry - jmcmurry@mwt.net Adapted for the template by  Wim van der Kuil - Leuven-Template.eu

You find our weather info also at:

European Weather Network

Weather Underground

Equipment we use:

Weather-station
Davis Vue

Weather-program
Meteobridge

Weather-server
Raspberry PI 2 B+

Provider
1 and 1

Davis Vue

Meteobridge

Raspberry PI 2 B+

1 and 1